createdAt,value
2018-12-08T00:00:12.363Z,1.60
2018-12-08T00:02:46.533Z,0.70
2018-12-08T00:05:22.469Z,1.07
2018-12-08T00:08:06.238Z,0.95
2018-12-08T00:10:38.659Z,1.65
2018-12-08T00:13:13.904Z,1.40
2018-12-08T00:18:51.138Z,1.73
2018-12-08T00:21:32.028Z,1.75
2018-12-08T00:24:08.171Z,1.77
2018-12-08T00:26:42.968Z,1.45
2018-12-08T00:29:30.484Z,1.32
2018-12-08T00:31:59.905Z,1.30
2018-12-08T00:34:29.873Z,1.57
2018-12-08T00:36:59.334Z,1.27
2018-12-08T00:39:39.921Z,1.05
2018-12-08T00:42:14.833Z,1.50
2018-12-08T00:44:44.184Z,1.62
2018-12-08T00:47:15.697Z,2.55
2018-12-08T00:49:58.020Z,1.57
2018-12-08T00:52:33.790Z,2.83
2018-12-08T00:55:07.282Z,1.72
2018-12-08T00:57:37.776Z,2.45
2018-12-08T01:00:13.448Z,2.15
2018-12-08T01:03:10.021Z,1.90
2018-12-08T01:05:44.957Z,1.82
2018-12-08T01:08:14.317Z,1.07
2018-12-08T01:10:45.226Z,1.47
2018-12-08T01:13:22.095Z,1.30
2018-12-08T01:16:04.065Z,3.85
2018-12-08T01:18:52.041Z,0.78
2018-12-08T01:21:33.516Z,1.52
2018-12-08T01:26:57.065Z,1.05
2018-12-08T01:29:28.237Z,0.60
2018-12-08T01:32:00.022Z,1.13
2018-12-08T01:34:32.371Z,1.03
2018-12-08T01:37:18.339Z,0.85
2018-12-08T01:39:47.831Z,0.80
2018-12-08T01:42:36.199Z,0.70
2018-12-08T01:45:09.893Z,1.03
2018-12-08T01:47:47.122Z,1.10
2018-12-08T01:50:28.557Z,1.57
2018-12-08T01:53:04.469Z,1.65
2018-12-08T01:55:37.808Z,1.67
2018-12-08T01:58:25.298Z,2.75
2018-12-08T02:01:00.546Z,1.63
2018-12-08T02:03:37.596Z,1.57
2018-12-08T02:06:09.315Z,1.32
2018-12-08T02:08:42.895Z,2.08
2018-12-08T02:14:58.797Z,1.52
2018-12-08T02:17:33.489Z,1.77
2018-12-08T02:20:08.787Z,2.40
2018-12-08T02:22:46.049Z,1.35
2018-12-08T02:25:25.626Z,1.70
2018-12-08T02:28:01.566Z,2.08
2018-12-08T02:33:47.100Z,1.52
2018-12-08T02:36:29.431Z,2.15
2018-12-08T02:38:59.228Z,1.80
2018-12-08T02:41:41.836Z,2.22
2018-12-08T02:44:17.536Z,1.60
2018-12-08T02:49:53.541Z,1.43
2018-12-08T02:52:36.054Z,1.30
2018-12-08T02:55:12.122Z,1.45
2018-12-08T02:57:41.902Z,1.57
2018-12-08T03:00:45.224Z,1.02
2018-12-08T03:03:14.568Z,0.60
2018-12-08T03:05:43.955Z,0.75
2018-12-08T03:08:27.749Z,0.83
2018-12-08T03:10:57.165Z,1.00
2018-12-08T03:13:36.635Z,1.00
2018-12-08T03:16:22.819Z,1.37
2018-12-08T03:18:56.416Z,1.97
2018-12-08T03:21:37.228Z,0.95
2018-12-08T03:24:07.032Z,1.92
2018-12-08T03:26:44.489Z,1.15
2018-12-08T03:29:14.424Z,1.42
2018-12-08T03:32:01.793Z,1.75
2018-12-08T03:34:31.396Z,1.67
2018-12-08T03:37:01.358Z,1.55
2018-12-08T03:42:49.145Z,0.93
2018-12-08T03:45:31.470Z,1.00
2018-12-08T03:48:10.055Z,1.07
2018-12-08T03:53:41.459Z,1.62
2018-12-08T03:59:14.495Z,0.70
2018-12-08T04:01:55.095Z,1.10
2018-12-08T04:04:24.453Z,1.82
2018-12-08T04:06:57.875Z,1.87
2018-12-08T04:09:30.238Z,1.30
2018-12-08T04:12:04.141Z,0.60
2018-12-08T04:14:34.098Z,1.17
2018-12-08T04:17:08.091Z,1.20
2018-12-08T04:19:49.743Z,1.07
2018-12-08T04:22:23.339Z,1.43
2018-12-08T04:24:55.230Z,0.90
2018-12-08T04:27:25.106Z,0.50
2018-12-08T04:30:02.293Z,0.70
2018-12-08T04:32:38.671Z,1.10
2018-12-08T04:35:08.629Z,1.12
2018-12-08T04:37:38.515Z,1.65
2018-12-08T04:40:26.586Z,1.35
2018-12-08T04:43:06.236Z,1.23
2018-12-08T04:45:35.603Z,0.90
2018-12-08T04:48:24.536Z,1.30
2018-12-08T04:51:18.420Z,1.53
2018-12-08T04:53:52.329Z,1.30
2018-12-08T04:56:21.637Z,1.73
2018-12-08T04:58:54.991Z,1.23
2018-12-08T05:01:24.372Z,0.50
2018-12-08T05:03:54.259Z,0.60
2018-12-08T05:06:23.631Z,1.00
2018-12-08T05:08:56.803Z,2.20
2018-12-08T05:11:27.523Z,0.90
2018-12-08T05:16:55.071Z,1.10
2018-12-08T05:22:21.244Z,1.47
2018-12-08T05:28:08.464Z,1.02
2018-12-08T05:30:57.973Z,1.77
2018-12-08T05:33:27.345Z,0.95
2018-12-08T05:35:56.673Z,1.47
2018-12-08T05:38:28.762Z,1.47
2018-12-08T05:41:06.795Z,1.92
2018-12-08T05:43:36.127Z,1.07
2018-12-08T05:46:05.527Z,1.60
2018-12-08T05:48:35.991Z,0.80
2018-12-08T05:51:16.966Z,0.70
2018-12-08T05:53:46.880Z,1.00
2018-12-08T05:59:23.588Z,1.45
2018-12-08T06:01:52.964Z,1.57
2018-12-08T06:04:25.821Z,1.33
2018-12-08T06:07:01.383Z,0.57
2018-12-08T06:09:37.074Z,0.60
2018-12-08T06:12:23.289Z,0.62
2018-12-08T06:14:58.916Z,0.75
2018-12-08T06:17:33.796Z,1.47
2018-12-08T06:22:56.879Z,0.37
2018-12-08T06:25:38.481Z,2.08
2018-12-08T06:28:24.604Z,0.60
2018-12-08T06:30:54.532Z,1.05
2018-12-08T06:33:42.624Z,1.10
2018-12-08T06:36:19.841Z,0.57
2018-12-08T06:38:49.728Z,1.55
2018-12-08T06:41:25.110Z,1.12
2018-12-08T06:44:13.274Z,0.65
2018-12-08T06:52:32.492Z,0.90
2018-12-08T06:55:24.608Z,1.02
2018-12-08T07:00:48.639Z,0.67
2018-12-08T07:03:18.771Z,1.30
2018-12-08T07:05:48.119Z,1.30
2018-12-08T07:08:17.482Z,2.07
2018-12-08T07:11:06.933Z,0.87
2018-12-08T07:13:40.983Z,1.77
2018-12-08T07:16:25.048Z,3.02
2018-12-08T07:19:06.161Z,0.60
2018-12-08T07:21:53.949Z,0.75
2018-12-08T07:24:30.287Z,1.35
2018-12-08T07:30:00.557Z,1.52
2018-12-08T07:35:37.798Z,0.70
2018-12-08T07:38:13.003Z,1.17
2018-12-08T07:40:51.702Z,1.25
2018-12-08T07:43:33.210Z,0.93
2018-12-08T07:46:13.178Z,0.75
2018-12-08T07:48:46.358Z,2.05
2018-12-08T07:51:17.570Z,0.90
2018-12-08T07:56:55.404Z,1.27
2018-12-08T07:59:31.612Z,1.50
2018-12-08T08:02:13.500Z,1.77
2018-12-08T08:04:46.736Z,0.62
2018-12-08T08:07:19.523Z,1.15
2018-12-08T08:10:13.512Z,0.53
2018-12-08T08:12:53.836Z,0.68
2018-12-08T08:15:41.525Z,0.55
2018-12-08T08:18:18.041Z,0.72
2018-12-08T08:20:52.990Z,1.33
2018-12-08T08:23:38.900Z,1.15
2018-12-08T08:26:08.234Z,0.80
2018-12-08T08:28:40.762Z,1.80
2018-12-08T08:31:10.143Z,1.40
2018-12-08T08:33:40.344Z,1.67
2018-12-08T08:36:16.321Z,6.15
2018-12-08T08:38:57.951Z,5.92
2018-12-08T08:41:32.446Z,6.70
2018-12-08T08:44:05.930Z,15.15
2018-12-08T08:46:41.252Z,11.20
2018-12-08T08:53:03.132Z,9.03
2018-12-08T08:55:38.710Z,10.47
2018-12-08T08:58:11.401Z,10.73
2018-12-08T09:00:45.330Z,11.43
2018-12-08T09:03:31.764Z,11.65
2018-12-08T09:06:07.330Z,9.25
2018-12-08T09:08:43.112Z,7.22
2018-12-08T09:11:12.545Z,8.20
2018-12-08T09:13:47.780Z,6.97
2018-12-08T09:16:37.444Z,5.33
2018-12-08T09:19:10.371Z,7.67
2018-12-08T09:21:41.379Z,8.13
2018-12-08T09:24:20.796Z,8.60
2018-12-08T09:26:55.624Z,8.53
2018-12-08T09:29:25.019Z,11.78
2018-12-08T09:35:03.309Z,6.72
2018-12-08T09:37:33.142Z,8.33
2018-12-08T09:40:08.540Z,6.70
2018-12-08T09:42:44.402Z,5.22
2018-12-08T09:45:19.451Z,7.90
2018-12-08T09:48:11.159Z,6.93
2018-12-08T09:50:50.545Z,5.97
2018-12-08T09:53:29.817Z,5.58
2018-12-08T09:59:11.604Z,3.90
2018-12-08T10:01:41.004Z,4.95
2018-12-08T10:04:16.215Z,4.40
2018-12-08T10:06:52.150Z,4.47
2018-12-08T10:12:34.299Z,12.20
2018-12-08T10:15:09.308Z,4.20
2018-12-08T10:17:42.628Z,4.60
2018-12-08T10:23:21.137Z,4.17
2018-12-08T10:25:53.757Z,2.47
2018-12-08T10:28:29.471Z,4.93
2018-12-08T10:31:04.647Z,4.65
2018-12-08T10:33:58.211Z,3.67
2018-12-08T10:36:33.078Z,3.90
2018-12-08T10:39:14.537Z,2.22
2018-12-08T10:41:49.725Z,2.33
2018-12-08T10:44:25.592Z,4.58
2018-12-08T10:47:01.790Z,1.92
2018-12-08T10:50:02.712Z,3.20
2018-12-08T10:52:38.935Z,2.55
2018-12-08T10:55:18.216Z,2.98
2018-12-08T11:01:08.949Z,1.70
2018-12-08T11:03:48.596Z,1.32
2018-12-08T11:06:29.145Z,2.87
2018-12-08T11:09:17.884Z,3.02
2018-12-08T11:11:57.415Z,2.90
2018-12-08T11:14:33.292Z,6.70
2018-12-08T11:17:14.522Z,4.03
2018-12-08T11:19:43.915Z,3.40
2018-12-08T11:22:13.809Z,5.92
2018-12-08T11:27:41.547Z,4.65
2018-12-08T11:30:17.211Z,5.95
2018-12-08T11:32:46.595Z,7.15
2018-12-08T11:35:22.780Z,4.90
2018-12-08T11:37:57.942Z,5.70
2018-12-08T11:40:48.564Z,4.65
2018-12-08T11:43:32.096Z,4.83
2018-12-08T11:46:08.472Z,4.37
2018-12-08T11:51:43.751Z,5.90
2018-12-08T11:54:16.208Z,3.20
2018-12-08T11:56:49.674Z,3.40
2018-12-08T11:59:30.826Z,4.53
2018-12-08T12:02:06.733Z,2.95
2018-12-08T12:04:42.560Z,3.92
2018-12-08T12:07:13.990Z,2.70
2018-12-08T12:09:44.600Z,3.62
2018-12-08T12:12:28.267Z,4.22
2018-12-08T12:15:12.642Z,3.15
2018-12-08T12:17:48.199Z,3.12
2018-12-08T12:20:22.559Z,4.67
2018-12-08T12:22:58.068Z,3.72
2018-12-08T12:28:39.780Z,3.95
2018-12-08T12:31:14.980Z,3.58
2018-12-08T12:34:09.290Z,2.55
2018-12-08T12:36:59.631Z,3.65
2018-12-08T12:39:36.463Z,6.40
2018-12-08T12:42:05.928Z,4.30
2018-12-08T12:44:49.677Z,5.37
2018-12-08T12:47:30.830Z,4.45
2018-12-08T12:50:17.661Z,4.87
2018-12-08T12:52:50.731Z,7.43
2018-12-08T12:55:24.700Z,4.70
2018-12-08T12:58:00.263Z,5.57
2018-12-08T13:00:29.728Z,7.37
2018-12-08T13:06:09.599Z,5.37
2018-12-08T13:08:42.508Z,4.97
2018-12-08T13:11:14.533Z,4.87
2018-12-08T13:14:20.381Z,7.03
2018-12-08T13:16:57.002Z,7.92
2018-12-08T13:19:34.698Z,5.25
2018-12-08T13:25:13.465Z,5.83
2018-12-08T13:27:42.859Z,4.50
2018-12-08T13:30:22.054Z,3.47
2018-12-08T13:32:51.421Z,4.28
2018-12-08T13:35:34.853Z,3.35
2018-12-08T13:38:05.376Z,4.42
2018-12-08T13:40:52.793Z,4.87
2018-12-08T13:43:29.225Z,3.70
2018-12-08T13:46:12.769Z,3.30
2018-12-08T13:48:42.644Z,3.93
2018-12-08T13:51:24.555Z,4.40
2018-12-08T13:54:02.035Z,3.93
2018-12-08T13:56:37.409Z,2.87
2018-12-08T13:59:09.831Z,2.30
2018-12-08T14:01:39.311Z,2.63
2018-12-08T14:04:21.223Z,2.23
2018-12-08T14:06:55.248Z,2.67
2018-12-08T14:12:55.484Z,2.83
2018-12-08T14:15:28.445Z,2.17
2018-12-08T14:18:03.670Z,2.95
2018-12-08T14:20:35.434Z,4.10
2018-12-08T14:23:23.942Z,4.40
2018-12-08T14:25:55.971Z,4.35
2018-12-08T14:31:17.516Z,2.87
2018-12-08T14:34:00.292Z,3.80
2018-12-08T14:36:35.160Z,3.47
2018-12-08T14:39:16.630Z,3.10
2018-12-08T14:41:45.987Z,4.13
2018-12-08T14:44:37.322Z,2.70
2018-12-08T14:47:16.519Z,2.85
2018-12-08T14:49:51.433Z,2.13
2018-12-08T14:52:32.630Z,3.40
2018-12-08T14:55:05.400Z,3.15
2018-12-08T14:57:40.321Z,2.43
2018-12-08T15:00:21.552Z,2.70
2018-12-08T15:03:23.331Z,2.15
2018-12-08T15:05:58.475Z,2.83
2018-12-08T15:08:34.008Z,3.63
2018-12-08T15:11:09.077Z,3.33
2018-12-08T15:13:43.527Z,2.63
2018-12-08T15:16:12.852Z,4.40
2018-12-08T15:18:42.398Z,3.03
2018-12-08T15:21:17.271Z,3.58
2018-12-08T15:23:46.660Z,2.67
2018-12-08T15:26:21.656Z,3.08
2018-12-08T15:29:03.183Z,3.23
2018-12-08T15:31:38.728Z,2.65
2018-12-08T15:34:14.291Z,2.62
2018-12-08T15:36:49.833Z,2.05
2018-12-08T15:39:24.744Z,3.52
2018-12-08T15:42:08.082Z,3.40
2018-12-08T15:44:47.351Z,2.95
2018-12-08T15:47:19.987Z,2.70
2018-12-08T15:49:55.304Z,3.70
2018-12-08T15:52:28.252Z,2.08
2018-12-08T15:54:57.724Z,2.42
2018-12-08T15:57:39.639Z,1.80
2018-12-08T16:00:13.756Z,2.87
2018-12-08T16:02:50.855Z,2.70
2018-12-08T16:05:21.240Z,2.58
2018-12-08T16:08:03.084Z,2.30
2018-12-08T16:10:38.575Z,2.87
2018-12-08T16:13:14.019Z,4.55
2018-12-08T16:15:43.447Z,2.80
2018-12-08T16:18:18.405Z,3.27
2018-12-08T16:20:57.998Z,2.75
2018-12-08T16:23:39.812Z,3.45
2018-12-08T16:26:14.579Z,7.53
2018-12-08T16:28:55.748Z,3.30
2018-12-08T16:31:31.054Z,2.77
2018-12-08T16:34:06.177Z,3.83
2018-12-08T16:36:42.169Z,2.15
2018-12-08T16:39:20.542Z,2.92
2018-12-08T16:41:49.928Z,3.45
2018-12-08T16:44:20.303Z,3.37
2018-12-08T16:46:50.729Z,2.20
2018-12-08T16:49:20.183Z,2.67
2018-12-08T16:52:01.375Z,2.98
2018-12-08T16:54:34.425Z,3.02
2018-12-08T16:57:09.802Z,2.45
2018-12-08T16:59:43.531Z,3.35
2018-12-08T17:02:31.436Z,2.20
2018-12-08T17:05:06.439Z,2.80
2018-12-08T17:07:51.877Z,2.33
2018-12-08T17:10:29.083Z,1.45
2018-12-08T17:16:11.233Z,1.52
2018-12-08T17:18:53.209Z,2.25
2018-12-08T17:21:28.177Z,1.35
2018-12-08T17:24:19.540Z,1.95
2018-12-08T17:26:48.964Z,1.62
2018-12-08T17:35:03.649Z,1.85
2018-12-08T17:37:38.919Z,2.58
2018-12-08T17:40:23.160Z,2.35
2018-12-08T17:42:58.962Z,1.42
2018-12-08T17:45:40.200Z,1.10
2018-12-08T17:48:10.066Z,0.95
2018-12-08T17:50:39.491Z,1.35
2018-12-08T17:53:21.427Z,1.20
2018-12-08T17:55:57.529Z,1.85
2018-12-08T17:58:32.309Z,1.80
2018-12-08T18:01:07.232Z,2.08
2018-12-08T18:03:36.736Z,2.15
2018-12-08T18:06:11.925Z,2.60
2018-12-08T18:08:41.362Z,2.30
2018-12-08T18:14:06.979Z,1.98
2018-12-08T18:19:45.210Z,1.80
2018-12-08T18:22:30.904Z,1.50
2018-12-08T18:25:00.811Z,2.37
2018-12-08T18:30:35.856Z,2.20
2018-12-08T18:33:19.882Z,2.57
2018-12-08T18:35:49.433Z,3.60
2018-12-08T18:38:37.694Z,2.60
2018-12-08T18:41:10.343Z,1.92
2018-12-08T18:46:40.667Z,1.82
2018-12-08T18:49:29.906Z,2.27
2018-12-08T18:51:59.475Z,1.43
2018-12-08T18:54:47.629Z,1.77
2018-12-08T18:57:26.845Z,1.87
2018-12-08T19:03:04.641Z,2.07
2018-12-08T19:05:47.731Z,1.65
2018-12-08T19:08:23.106Z,1.50
2018-12-08T19:11:04.181Z,1.63
2018-12-08T19:13:33.656Z,2.10
2018-12-08T19:16:06.094Z,1.47
2018-12-08T19:18:47.899Z,2.70
2018-12-08T19:21:17.311Z,1.52
2018-12-08T19:23:46.697Z,1.72
2018-12-08T19:26:25.446Z,1.70
2018-12-08T19:28:55.009Z,2.12
2018-12-08T19:31:54.926Z,2.12
2018-12-08T19:34:36.080Z,1.67
2018-12-08T19:37:11.831Z,2.23
2018-12-08T19:39:41.247Z,3.37
2018-12-08T19:42:11.053Z,1.82
2018-12-08T19:44:52.356Z,2.60
2018-12-08T19:47:21.803Z,1.85
2018-12-08T19:49:51.197Z,1.50
2018-12-08T19:52:22.220Z,2.00
2018-12-08T19:54:54.538Z,2.83
2018-12-08T20:00:35.925Z,2.30
2018-12-08T20:03:09.773Z,3.55
2018-12-08T20:05:45.200Z,4.50
2018-12-08T20:08:37.691Z,2.67
2018-12-08T20:11:13.133Z,1.52
2018-12-08T20:16:41.632Z,1.42
2018-12-08T20:19:30.286Z,1.30
2018-12-08T20:22:11.784Z,1.75
2018-12-08T20:24:45.323Z,1.25
2018-12-08T20:27:16.882Z,0.82
2018-12-08T20:29:52.326Z,1.15
2018-12-08T20:32:27.151Z,1.32
2018-12-08T20:35:08.368Z,1.07
2018-12-08T20:37:41.224Z,1.52
2018-12-08T20:40:22.449Z,0.80
2018-12-08T20:42:59.960Z,1.57
2018-12-08T20:45:33.252Z,2.80
2018-12-08T20:48:17.026Z,1.72
2018-12-08T20:50:56.355Z,2.17
2018-12-08T20:53:39.809Z,2.47
2018-12-08T20:56:09.272Z,2.55
2018-12-08T20:58:51.169Z,3.97
2018-12-08T21:01:26.618Z,3.50
2018-12-08T21:03:56.048Z,2.95
2018-12-08T21:06:35.772Z,2.75
2018-12-08T21:09:06.563Z,2.10
2018-12-08T21:11:37.843Z,2.33
2018-12-08T21:14:19.562Z,1.90
2018-12-08T21:16:48.986Z,1.72
2018-12-08T21:19:55.523Z,2.20
2018-12-08T21:22:28.708Z,3.80
2018-12-08T21:25:10.476Z,2.43
2018-12-08T21:27:45.600Z,2.15
2018-12-08T21:30:48.068Z,2.40
2018-12-08T21:36:29.952Z,1.77
2018-12-08T21:39:08.844Z,3.60
2018-12-08T21:41:43.896Z,3.23
2018-12-08T21:44:34.064Z,2.23
2018-12-08T21:47:10.485Z,3.03
2018-12-08T21:49:58.539Z,2.50
2018-12-08T21:52:34.566Z,3.05
2018-12-08T21:55:11.510Z,2.17
2018-12-08T21:57:53.797Z,2.67
2018-12-08T22:00:35.487Z,2.97
2018-12-08T22:03:10.952Z,1.22
2018-12-08T22:05:54.846Z,1.20
2018-12-08T22:11:26.115Z,1.32
2018-12-08T22:14:01.712Z,1.12
2018-12-08T22:16:37.533Z,1.02
2018-12-08T22:19:21.022Z,1.22
2018-12-08T22:21:52.891Z,1.70
2018-12-08T22:26:59.535Z,1.90
2018-12-08T22:29:48.485Z,2.02
2018-12-08T22:32:17.936Z,2.25
2018-12-08T22:40:53.304Z,2.20
2018-12-08T22:43:35.427Z,2.00
2018-12-08T22:46:04.812Z,1.63
2018-12-08T22:48:46.877Z,2.95
2018-12-08T22:51:17.906Z,2.27
2018-12-08T22:53:55.325Z,2.85
2018-12-08T22:56:30.069Z,1.98
2018-12-08T22:59:05.109Z,2.25
2018-12-08T23:01:41.359Z,2.12
2018-12-08T23:04:29.474Z,2.93
2018-12-08T23:07:06.631Z,2.05
2018-12-08T23:09:50.750Z,1.70
2018-12-08T23:12:20.278Z,3.47
2018-12-08T23:14:52.412Z,2.70
2018-12-08T23:17:29.192Z,2.50
2018-12-08T23:20:05.847Z,2.57
2018-12-08T23:22:40.828Z,2.80
2018-12-08T23:25:32.006Z,2.00
2018-12-08T23:28:08.335Z,2.87
2018-12-08T23:30:45.839Z,3.33
2018-12-08T23:33:33.575Z,2.95
2018-12-08T23:36:16.389Z,1.73
2018-12-08T23:39:04.023Z,1.43
2018-12-08T23:41:38.235Z,1.65
2018-12-08T23:44:09.736Z,1.27
2018-12-08T23:46:39.143Z,1.27
2018-12-08T23:49:34.400Z,2.10
2018-12-08T23:52:04.255Z,2.45
2018-12-08T23:54:33.638Z,2.70
2018-12-08T23:57:03.149Z,1.50
2018-12-08T23:59:36.885Z,2.27
